Main page
METAR-TAF:

METAR-TAF

Airports :

Aberdeen Airport

Aberdeen, Scotland

latitude: 57-12N, longitude: 002-13W, elevation: 65 m

Current weather observation

The report was made 25 minutes ago, at 15:20 UTC
Wind 13 kt from the West
Temperature 12°C
Humidity 62%
Pressure 1021 hPa
Visibility 10 km or more
Scattered clouds at a height of 3600 ft

METAR: EGPD 211520Z 28013KT 9999 SCT036 12/05 Q1021 NOSIG

Time: 16:45 (15:45 UTC)

Forecast

The report was made 4 hours and 51 minutes ago, at 10:54 UTC
Forecast valid from 21 at 12 UTC to 22 at 12 UTC
Wind 9 kt from the West
Visibility 10 km or more
Scattered clouds at a height of 2500 ft
Becoming
from 22 at 06 UTC to 22 at 09 UTC
Wind 10 kt from the South/Southwest

TAF: EGPD 211054Z 2112/2212 28009KT 9999 SCT025 BECMG 2206/2209 21010KT

Weather observations and forecasts of more than 4000 airports (METAR and TAF reports).

The available stations are represented by yellow and red dots on the map.

Hover mouse over dot to see the name of the station.

Then click to see weather observations and forecasts.

To change the map : click on the green buttons with a black cross to zoom in, on the green button with a dash to zoom out, or on the green arrows for adjacent maps.


METAR-TAF: